Terminal Aerodrome Forecast
Issued by NWS Sioux Falls, SD

Home | Current Version | Previous Version | Graphics & Text | Print | Product List | Glossary On
Versions: 1 2 3 4 5 6 7 8 9 10 11 12 13 14 15
861
FTUS43 KFSD 161255 AAA
TAFHON
TAF AMD
KHON 161255Z 1613/1712 33012KT P6SM VCTS SCT014CB OVC017
     FM161400 34010KT P6SM VCSH OVC015
     FM161700 32011KT P6SM OVC020
     FM162200 30010KT P6SM OVC035
     FM170200 31008KT P6SM SCT090
     FM170500 28004KT P6SM FEW150=

USA.gov is the U.S. government's official web portal to all federal, state and local government web resources and services.